createdAt,value
2022-08-01T00:00:32.401Z,6.07
2022-08-01T00:03:02.771Z,6.78
2022-08-01T00:05:35.996Z,6.28
2022-08-01T00:08:06.388Z,6.07
2022-08-01T00:10:36.608Z,6.43
2022-08-01T00:13:08.170Z,6.30
2022-08-01T00:15:40.909Z,5.55
2022-08-01T00:18:24.992Z,5.85
2022-08-01T00:21:01.283Z,6.80
2022-08-01T00:23:31.190Z,5.35
2022-08-01T00:26:01.607Z,5.78
2022-08-01T00:28:34.640Z,5.10
2022-08-01T00:31:05.231Z,5.53
2022-08-01T00:33:35.238Z,5.30
2022-08-01T00:36:08.408Z,5.57
2022-08-01T00:38:38.381Z,5.28
2022-08-01T00:41:08.485Z,4.97
2022-08-01T00:43:38.649Z,6.68
2022-08-01T00:46:08.722Z,5.57
2022-08-01T00:48:38.956Z,5.50
2022-08-01T00:51:15.011Z,5.93
2022-08-01T00:53:51.887Z,6.03
2022-08-01T00:56:24.383Z,6.95
2022-08-01T00:59:00.276Z,6.55
2022-08-01T01:01:39.844Z,5.53
2022-08-01T01:04:12.938Z,4.82
2022-08-01T01:07:01.801Z,3.75
2022-08-01T01:09:42.513Z,3.83
2022-08-01T01:12:26.390Z,3.42
2022-08-01T01:15:05.547Z,3.40
2022-08-01T01:17:50.105Z,3.08
2022-08-01T01:20:22.326Z,3.47
2022-08-01T01:23:10.976Z,3.03
2022-08-01T01:26:13.941Z,3.00
2022-08-01T01:29:01.816Z,2.33
2022-08-01T01:31:34.995Z,2.67
2022-08-01T01:34:07.141Z,3.10
2022-08-01T01:36:39.515Z,3.20
2022-08-01T01:39:11.040Z,3.47
2022-08-01T01:41:44.152Z,3.20
2022-08-01T01:44:18.958Z,2.90
2022-08-01T01:46:50.283Z,3.95
2022-08-01T01:49:26.474Z,3.22
2022-08-01T01:52:02.476Z,3.88
2022-08-01T01:54:36.880Z,3.53
2022-08-01T01:57:09.183Z,3.35
2022-08-01T01:59:43.593Z,3.50
2022-08-01T02:02:18.034Z,3.58
2022-08-01T02:04:53.683Z,3.97
2022-08-01T02:07:29.317Z,3.78
2022-08-01T02:10:00.997Z,3.75
2022-08-01T02:12:34.136Z,3.80
2022-08-01T02:15:10.719Z,4.18
2022-08-01T02:17:45.460Z,4.20
2022-08-01T02:20:18.000Z,4.68
2022-08-01T02:22:52.635Z,4.22
2022-08-01T02:25:28.401Z,4.80
2022-08-01T02:28:05.207Z,4.68
2022-08-01T02:30:40.213Z,4.47
2022-08-01T02:33:17.318Z,4.68
2022-08-01T02:36:29.030Z,4.47
2022-08-01T02:38:47.588Z,4.32
2022-08-01T02:41:24.077Z,4.63
2022-08-01T02:44:00.787Z,5.20
2022-08-01T02:46:40.455Z,5.13
2022-08-01T02:49:14.155Z,4.72
2022-08-01T02:51:45.705Z,4.60
2022-08-01T02:54:16.083Z,4.88
2022-08-01T02:56:47.612Z,4.55
2022-08-01T02:59:22.338Z,5.18
2022-08-01T03:02:00.736Z,5.22
2022-08-01T03:04:34.564Z,4.45
2022-08-01T03:07:07.498Z,3.60
2022-08-01T03:09:42.661Z,4.10
2022-08-01T03:12:17.707Z,4.10
2022-08-01T03:14:52.831Z,4.43
2022-08-01T03:17:29.083Z,3.97
2022-08-01T03:20:02.186Z,3.42
2022-08-01T03:22:33.793Z,3.88
2022-08-01T03:25:07.343Z,3.10
2022-08-01T03:30:11.682Z,2.90
2022-08-01T03:32:56.592Z,2.85
2022-08-01T03:35:31.071Z,2.97
2022-08-01T03:38:16.421Z,2.80
2022-08-01T03:40:52.753Z,2.90
2022-08-01T03:43:31.380Z,2.50
2022-08-01T03:46:08.946Z,2.08
2022-08-01T03:48:46.683Z,1.98
2022-08-01T03:51:22.832Z,2.40
2022-08-01T03:53:56.759Z,2.08
2022-08-01T03:56:30.004Z,2.35
2022-08-01T03:59:00.991Z,2.85
2022-08-01T04:01:32.085Z,2.30
2022-08-01T04:04:07.085Z,2.60
2022-08-01T04:06:37.130Z,2.22
2022-08-01T04:09:12.818Z,2.70
2022-08-01T04:11:43.847Z,3.17
2022-08-01T04:14:14.900Z,2.63
2022-08-01T04:16:44.943Z,2.47
2022-08-01T04:19:18.675Z,2.60
2022-08-01T04:21:48.788Z,3.20
2022-08-01T04:24:25.588Z,2.97
2022-08-01T04:26:59.866Z,2.60
2022-08-01T04:29:31.778Z,2.70
2022-08-01T04:32:05.526Z,3.35
2022-08-01T04:34:38.981Z,3.00
2022-08-01T04:37:13.910Z,3.22
2022-08-01T04:39:50.819Z,3.08
2022-08-01T04:42:25.068Z,3.30
2022-08-01T04:44:58.841Z,2.83
2022-08-01T04:47:30.937Z,2.90
2022-08-01T04:50:04.806Z,3.05
2022-08-01T04:52:37.739Z,2.72
2022-08-01T04:55:10.455Z,2.90
2022-08-01T04:57:41.678Z,3.33
2022-08-01T05:00:13.088Z,3.40
2022-08-01T05:02:43.966Z,3.08
2022-08-01T05:05:16.663Z,3.05
2022-08-01T05:07:47.124Z,2.95
2022-08-01T05:10:18.510Z,3.08
2022-08-01T05:12:48.310Z,3.45
2022-08-01T05:15:18.423Z,3.15
2022-08-01T05:17:48.616Z,2.83
2022-08-01T05:20:25.086Z,2.80
2022-08-01T05:22:56.942Z,2.88
2022-08-01T05:25:57.689Z,3.28
2022-08-01T05:28:19.442Z,3.20
2022-08-01T05:30:49.675Z,3.13
2022-08-01T05:33:21.946Z,3.30
2022-08-01T05:35:55.109Z,2.92
2022-08-01T05:38:25.349Z,3.50
2022-08-01T05:40:56.572Z,2.90
2022-08-01T05:43:28.949Z,3.13
2022-08-01T05:45:59.882Z,3.33
2022-08-01T05:48:31.457Z,3.35
2022-08-01T05:51:04.667Z,3.03
2022-08-01T05:53:35.484Z,3.10
2022-08-01T05:56:05.934Z,3.30
2022-08-01T05:58:36.100Z,3.60
2022-08-01T06:01:07.161Z,2.88
2022-08-01T06:03:44.044Z,3.35
2022-08-01T06:06:17.845Z,3.28
2022-08-01T06:08:54.879Z,3.60
2022-08-01T06:11:30.378Z,3.10
2022-08-01T06:14:06.552Z,3.40
2022-08-01T06:16:36.876Z,3.60
2022-08-01T06:19:07.476Z,4.65
2022-08-01T06:21:40.574Z,3.90
2022-08-01T06:24:12.352Z,4.55
2022-08-01T06:26:44.006Z,4.25
2022-08-01T06:29:14.754Z,5.05
2022-08-01T06:31:44.897Z,4.32
2022-08-01T06:34:16.433Z,4.57
2022-08-01T06:36:49.450Z,4.20
2022-08-01T06:39:19.934Z,4.55
2022-08-01T06:41:52.242Z,4.65
2022-08-01T06:44:27.785Z,4.82
2022-08-01T06:47:01.648Z,4.60
2022-08-01T06:49:31.900Z,4.75
2022-08-01T06:52:08.718Z,5.72
2022-08-01T06:54:39.004Z,5.28
2022-08-01T06:57:10.521Z,5.03
2022-08-01T06:59:40.867Z,5.75
2022-08-01T07:02:31.208Z,5.05
2022-08-01T07:05:03.852Z,5.93
2022-08-01T07:07:36.860Z,6.13
2022-08-01T07:10:07.876Z,5.75
2022-08-01T07:12:39.216Z,6.32
2022-08-01T07:15:32.799Z,5.72
2022-08-01T07:18:06.074Z,5.80
2022-08-01T07:20:52.737Z,6.15
2022-08-01T07:23:30.385Z,7.15
2022-08-01T07:26:04.535Z,6.90
2022-08-01T07:28:35.351Z,6.38
2022-08-01T07:31:14.143Z,6.32
2022-08-01T07:33:48.373Z,6.40
2022-08-01T07:36:36.405Z,6.05
2022-08-01T07:39:09.700Z,6.32
2022-08-01T07:42:05.575Z,5.57
2022-08-01T07:44:35.842Z,6.97
2022-08-01T07:47:06.025Z,6.50
2022-08-01T07:49:40.428Z,5.70
2022-08-01T07:52:14.202Z,7.03
2022-08-01T07:55:02.514Z,6.35
2022-08-01T07:57:35.771Z,6.30
2022-08-01T08:02:36.940Z,5.35
2022-08-01T08:05:08.512Z,6.95
2022-08-01T08:07:38.621Z,6.18
2022-08-01T08:10:13.717Z,5.85
2022-08-01T08:12:43.873Z,5.80
2022-08-01T08:15:16.039Z,5.97
2022-08-01T08:17:50.299Z,6.00
2022-08-01T08:20:30.643Z,6.25
2022-08-01T08:23:41.411Z,5.85
2022-08-01T08:26:16.310Z,6.20
2022-08-01T08:28:51.340Z,5.45
2022-08-01T08:31:25.658Z,4.82
2022-08-01T08:34:11.770Z,5.03
2022-08-01T08:36:47.680Z,6.18
2022-08-01T08:39:20.744Z,5.43
2022-08-01T08:41:55.774Z,5.88
2022-08-01T08:44:26.971Z,4.97
2022-08-01T08:46:59.582Z,4.28
2022-08-01T08:49:36.058Z,5.10
2022-08-01T08:52:09.259Z,4.57
2022-08-01T08:54:41.096Z,5.38
2022-08-01T08:57:17.498Z,5.18
2022-08-01T08:59:47.696Z,4.45
2022-08-01T09:02:18.255Z,4.80
2022-08-01T09:04:51.187Z,4.93
2022-08-01T09:07:21.639Z,4.35
2022-08-01T09:09:54.966Z,4.75
2022-08-01T09:14:59.084Z,4.72
2022-08-01T09:17:29.317Z,5.13
2022-08-01T09:20:01.075Z,4.05
2022-08-01T09:22:38.521Z,3.75
2022-08-01T09:25:10.821Z,4.38
2022-08-01T09:27:44.215Z,3.33
2022-08-01T09:30:23.971Z,3.95
2022-08-01T09:33:06.380Z,3.90
2022-08-01T09:35:45.811Z,3.88
2022-08-01T09:38:21.443Z,3.40
2022-08-01T09:40:58.972Z,4.07
2022-08-01T09:43:33.276Z,3.70
2022-08-01T09:46:13.538Z,3.92
2022-08-01T09:49:00.009Z,4.50
2022-08-01T09:51:58.884Z,3.65
2022-08-01T09:54:36.620Z,3.60
2022-08-01T09:57:17.812Z,4.35
2022-08-01T10:00:01.287Z,4.50
2022-08-01T10:02:34.924Z,5.07
2022-08-01T10:05:08.781Z,4.13
2022-08-01T10:07:43.256Z,4.13
2022-08-01T10:10:16.549Z,3.47
2022-08-01T10:12:49.185Z,3.78
2022-08-01T10:15:37.026Z,3.90
2022-08-01T10:18:16.355Z,3.25
2022-08-01T10:20:52.815Z,3.97
2022-08-01T10:23:40.554Z,4.03
2022-08-01T10:26:14.941Z,4.03
2022-08-01T10:28:51.893Z,4.13
2022-08-01T10:31:30.826Z,4.25
2022-08-01T10:34:05.236Z,3.40
2022-08-01T10:36:40.860Z,3.75
2022-08-01T10:39:14.087Z,3.08
2022-08-01T10:41:50.389Z,3.47
2022-08-01T10:44:21.745Z,2.97
2022-08-01T10:47:01.942Z,2.88
2022-08-01T10:49:36.461Z,3.40
2022-08-01T10:52:06.924Z,2.83
2022-08-01T10:54:52.499Z,2.85
2022-08-01T10:57:27.501Z,2.90
2022-08-01T10:59:59.429Z,2.75
2022-08-01T11:02:35.861Z,3.25
2022-08-01T11:05:11.216Z,3.78
2022-08-01T11:07:52.257Z,3.50
2022-08-01T11:10:39.863Z,3.50
2022-08-01T11:13:13.491Z,3.30
2022-08-01T11:15:50.344Z,3.22
2022-08-01T11:18:41.637Z,3.38
2022-08-01T11:21:58.849Z,3.67
2022-08-01T11:24:05.214Z,3.90
2022-08-01T11:29:22.284Z,4.25
2022-08-01T11:31:53.589Z,3.42
2022-08-01T11:34:59.953Z,3.17
2022-08-01T11:37:52.629Z,3.33
2022-08-01T11:43:43.885Z,4.13
2022-08-01T11:46:28.814Z,3.47
2022-08-01T11:49:40.200Z,2.88
2022-08-01T11:52:23.733Z,2.90
2022-08-01T11:55:16.620Z,2.72
2022-08-01T12:00:47.131Z,2.92
2022-08-01T12:07:20.948Z,4.20
2022-08-01T12:10:10.848Z,2.85
2022-08-01T12:13:14.942Z,2.72
2022-08-01T12:15:47.387Z,2.75
2022-08-01T12:18:19.491Z,2.50
2022-08-01T12:20:58.204Z,2.50
2022-08-01T12:24:00.595Z,3.13
2022-08-01T12:26:44.781Z,2.83
2022-08-01T12:29:37.185Z,2.80
2022-08-01T12:32:08.008Z,2.70
2022-08-01T12:34:39.205Z,3.08
2022-08-01T12:37:09.622Z,2.90
2022-08-01T12:39:43.342Z,2.90
2022-08-01T12:42:14.077Z,2.90
2022-08-01T12:44:45.998Z,2.60
2022-08-01T12:47:17.417Z,2.47
2022-08-01T12:49:50.520Z,2.60
2022-08-01T12:55:16.157Z,2.75
2022-08-01T12:57:51.023Z,2.78
2022-08-01T13:00:25.613Z,3.08
2022-08-01T13:03:07.907Z,3.05
2022-08-01T13:05:49.411Z,3.20
2022-08-01T13:08:22.517Z,2.45
2022-08-01T13:13:43.414Z,2.75
2022-08-01T13:16:30.243Z,2.50
2022-08-01T13:19:05.961Z,2.80
2022-08-01T13:21:54.502Z,2.80
2022-08-01T13:24:31.207Z,2.72
2022-08-01T13:27:06.036Z,2.40
2022-08-01T13:29:40.145Z,2.67
2022-08-01T13:32:29.123Z,2.42
2022-08-01T13:35:16.008Z,2.75
2022-08-01T13:38:11.723Z,2.95
2022-08-01T13:40:46.982Z,2.67
2022-08-01T13:43:19.840Z,2.50
2022-08-01T13:45:51.324Z,3.10
2022-08-01T13:48:28.495Z,2.30
2022-08-01T13:53:52.300Z,2.63
2022-08-01T13:56:31.715Z,2.97
2022-08-01T13:59:06.706Z,3.22
2022-08-01T14:01:55.253Z,2.60
2022-08-01T14:05:16.394Z,2.40
2022-08-01T14:14:42.618Z,2.90
2022-08-01T14:17:14.622Z,2.53
2022-08-01T14:19:46.423Z,2.65
2022-08-01T14:22:16.574Z,2.53
2022-08-01T14:24:46.721Z,2.53
2022-08-01T14:27:17.704Z,3.20
2022-08-01T14:30:00.258Z,3.20
2022-08-01T14:32:34.639Z,3.03
2022-08-01T14:35:05.101Z,3.10
2022-08-01T14:37:38.715Z,2.80
2022-08-01T14:40:17.121Z,2.60
2022-08-01T14:42:53.933Z,2.92
2022-08-01T14:45:28.924Z,2.45
2022-08-01T14:48:00.783Z,2.80
2022-08-01T14:50:32.009Z,2.53
2022-08-01T14:53:01.922Z,3.28
2022-08-01T14:55:31.904Z,2.90
2022-08-01T14:58:03.386Z,2.95
2022-08-01T15:00:36.371Z,2.63
2022-08-01T15:05:37.537Z,2.95
2022-08-01T15:08:09.574Z,3.08
2022-08-01T15:10:39.811Z,2.70
2022-08-01T15:13:10.676Z,3.00
2022-08-01T15:15:43.276Z,3.15
2022-08-01T15:18:13.203Z,3.03
2022-08-01T15:20:43.297Z,3.17
2022-08-01T15:23:13.579Z,3.15
2022-08-01T15:25:43.853Z,2.53
2022-08-01T15:28:14.681Z,2.90
2022-08-01T15:30:47.310Z,3.53
2022-08-01T15:33:17.903Z,2.60
2022-08-01T15:35:48.006Z,2.72
2022-08-01T15:38:22.958Z,3.00
2022-08-01T15:40:55.888Z,2.90
2022-08-01T15:43:27.176Z,2.65
2022-08-01T15:46:04.339Z,2.73
2022-08-01T15:48:39.681Z,3.15
2022-08-01T15:51:10.602Z,2.58
2022-08-01T15:53:41.514Z,2.97
2022-08-01T15:56:14.583Z,2.63
2022-08-01T16:01:18.595Z,2.53
2022-08-01T16:03:48.868Z,2.40
2022-08-01T16:06:18.835Z,2.40
2022-08-01T16:08:51.082Z,2.88
2022-08-01T16:11:24.202Z,2.57
2022-08-01T16:14:00.388Z,2.63
2022-08-01T16:16:32.655Z,2.10
2022-08-01T16:19:05.769Z,2.80
2022-08-01T16:24:05.383Z,2.78
2022-08-01T16:26:38.858Z,2.50
2022-08-01T16:29:09.013Z,2.25
2022-08-01T16:31:51.734Z,2.60
2022-08-01T16:34:31.671Z,2.55
2022-08-01T16:37:03.129Z,2.80
2022-08-01T16:39:36.698Z,2.67
2022-08-01T16:42:07.820Z,2.80
2022-08-01T16:44:38.161Z,2.53
2022-08-01T16:47:11.690Z,2.40
2022-08-01T16:49:46.168Z,2.72
2022-08-01T16:52:16.622Z,2.40
2022-08-01T16:54:47.399Z,2.53
2022-08-01T16:57:17.374Z,2.35
2022-08-01T16:59:49.288Z,2.30
2022-08-01T17:02:22.910Z,2.33
2022-08-01T17:04:52.958Z,2.33
2022-08-01T17:07:25.182Z,2.50
2022-08-01T17:09:58.797Z,2.60
2022-08-01T17:12:29.520Z,2.50
2022-08-01T17:14:59.347Z,2.72
2022-08-01T17:17:32.404Z,2.50
2022-08-01T17:22:32.216Z,2.30
2022-08-01T17:25:02.649Z,2.30
2022-08-01T17:27:34.413Z,2.20
2022-08-01T17:30:07.248Z,2.78
2022-08-01T17:32:42.139Z,2.67
2022-08-01T17:35:15.654Z,2.60
2022-08-01T17:37:45.571Z,2.70
2022-08-01T17:40:39.221Z,2.50
2022-08-01T17:43:07.895Z,2.50
2022-08-01T17:45:51.344Z,2.20
2022-08-01T17:48:24.890Z,2.30
2022-08-01T17:50:55.385Z,2.70
2022-08-01T17:53:26.827Z,2.60
2022-08-01T17:56:01.798Z,2.78
2022-08-01T17:58:51.100Z,2.42
2022-08-01T18:01:26.979Z,2.30
2022-08-01T18:04:01.925Z,2.38
2022-08-01T18:06:32.287Z,2.22
2022-08-01T18:09:09.453Z,2.53
2022-08-01T18:11:41.724Z,2.70
2022-08-01T18:14:14.410Z,2.55
2022-08-01T18:16:44.294Z,2.05
2022-08-01T18:19:21.298Z,2.40
2022-08-01T18:21:51.489Z,2.38
2022-08-01T18:24:23.421Z,2.17
2022-08-01T18:26:55.060Z,2.50
2022-08-01T18:29:47.758Z,2.35
2022-08-01T18:32:16.791Z,2.92
2022-08-01T18:34:49.573Z,2.50
2022-08-01T18:37:19.963Z,2.72
2022-08-01T18:39:51.756Z,2.92
2022-08-01T18:42:30.692Z,3.30
2022-08-01T18:45:06.647Z,2.60
2022-08-01T18:47:39.327Z,2.38
2022-08-01T18:50:13.210Z,2.30
2022-08-01T18:52:48.650Z,2.45
2022-08-01T18:55:19.206Z,2.42
2022-08-01T18:57:51.778Z,2.20
2022-08-01T19:00:36.965Z,2.00
2022-08-01T19:03:12.810Z,2.40
2022-08-01T19:05:46.619Z,2.10
2022-08-01T19:08:16.598Z,2.15
2022-08-01T19:10:46.826Z,2.17
2022-08-01T19:13:19.107Z,2.10
2022-08-01T19:15:50.786Z,2.22
2022-08-01T19:18:22.072Z,2.28
2022-08-01T19:20:55.411Z,2.00
2022-08-01T19:23:38.962Z,2.20
2022-08-01T19:26:12.852Z,1.95
2022-08-01T19:28:49.611Z,2.53
2022-08-01T19:31:22.438Z,2.95
2022-08-01T19:33:56.856Z,2.42
2022-08-01T19:36:30.136Z,2.10
2022-08-01T19:39:01.469Z,1.90
2022-08-01T19:41:35.124Z,2.13
2022-08-01T19:44:07.343Z,2.22
2022-08-01T19:46:37.555Z,1.90
2022-08-01T19:49:07.870Z,2.22
2022-08-01T19:51:44.783Z,2.22
2022-08-01T19:54:16.541Z,2.00
2022-08-01T19:56:48.249Z,2.15
2022-08-01T19:59:22.422Z,2.50
2022-08-01T20:01:59.195Z,2.20
2022-08-01T20:04:29.764Z,2.47
2022-08-01T20:07:03.169Z,2.33
2022-08-01T20:12:04.622Z,2.22
2022-08-01T20:14:34.850Z,2.50
2022-08-01T20:17:05.166Z,2.83
2022-08-01T20:19:38.846Z,3.50
2022-08-01T20:22:15.925Z,3.35
2022-08-01T20:24:51.051Z,2.80
2022-08-01T20:27:28.096Z,2.55
2022-08-01T20:30:04.868Z,3.00
2022-08-01T20:32:36.681Z,2.22
2022-08-01T20:35:07.969Z,2.42
2022-08-01T20:38:06.263Z,2.63
2022-08-01T20:43:03.703Z,1.88
2022-08-01T20:45:34.126Z,1.95
2022-08-01T20:48:06.638Z,1.98
2022-08-01T20:50:54.074Z,2.38
2022-08-01T20:53:29.077Z,1.83
2022-08-01T20:56:09.338Z,2.70
2022-08-01T20:58:58.318Z,2.65
2022-08-01T21:01:34.451Z,2.25
2022-08-01T21:04:17.072Z,2.20
2022-08-01T21:06:58.546Z,2.38
2022-08-01T21:09:39.672Z,2.40
2022-08-01T21:12:15.665Z,2.10
2022-08-01T21:15:02.126Z,1.75
2022-08-01T21:17:44.135Z,1.98
2022-08-01T21:20:16.269Z,1.88
2022-08-01T21:23:01.448Z,2.08
2022-08-01T21:25:37.548Z,2.00
2022-08-01T21:28:08.756Z,2.20
2022-08-01T21:30:39.589Z,2.13
2022-08-01T21:33:14.853Z,2.15
2022-08-01T21:35:45.338Z,2.13
2022-08-01T21:38:19.348Z,2.63
2022-08-01T21:40:52.780Z,2.20
2022-08-01T21:43:25.945Z,2.20
2022-08-01T21:46:00.678Z,2.30
2022-08-01T21:48:37.333Z,2.10
2022-08-01T21:51:12.474Z,2.38
2022-08-01T21:53:50.886Z,2.60
2022-08-01T21:56:30.614Z,1.92
2022-08-01T21:59:14.944Z,2.28
2022-08-01T22:01:55.803Z,2.15
2022-08-01T22:04:36.675Z,2.22
2022-08-01T22:07:09.862Z,2.70
2022-08-01T22:09:42.210Z,2.45
2022-08-01T22:12:18.639Z,2.25
2022-08-01T22:14:52.478Z,2.67
2022-08-01T22:17:25.437Z,2.53
2022-08-01T22:19:57.020Z,2.27
2022-08-01T22:22:51.289Z,2.20
2022-08-01T22:25:25.421Z,2.10
2022-08-01T22:28:05.684Z,2.22
2022-08-01T22:30:44.347Z,2.45
2022-08-01T22:33:17.783Z,2.08
2022-08-01T22:38:22.783Z,2.80
2022-08-01T22:40:58.119Z,2.40
2022-08-01T22:43:38.690Z,1.85
2022-08-01T22:46:18.418Z,2.20
2022-08-01T22:48:53.693Z,2.33
2022-08-01T22:51:37.390Z,2.40
2022-08-01T22:54:09.996Z,2.03
2022-08-01T22:56:46.885Z,2.30
2022-08-01T22:59:43.019Z,2.47
2022-08-01T23:02:18.291Z,2.45
2022-08-01T23:04:52.648Z,2.85
2022-08-01T23:07:41.641Z,3.03
2022-08-01T23:10:13.148Z,2.30
2022-08-01T23:12:44.870Z,2.38
2022-08-01T23:15:30.825Z,2.45
2022-08-01T23:18:07.911Z,2.05
2022-08-01T23:20:39.924Z,2.30
2022-08-01T23:23:12.136Z,2.53
2022-08-01T23:25:44.289Z,2.45
2022-08-01T23:28:17.278Z,2.20
2022-08-01T23:30:51.195Z,3.03
2022-08-01T23:33:21.430Z,2.08
2022-08-01T23:35:52.464Z,2.50
2022-08-01T23:38:27.608Z,2.30
2022-08-01T23:41:01.077Z,2.30
2022-08-01T23:43:33.100Z,2.55
2022-08-01T23:46:06.054Z,2.28
2022-08-01T23:48:37.063Z,2.30
2022-08-01T23:51:09.434Z,2.28
2022-08-01T23:53:41.463Z,2.28
2022-08-01T23:56:20.777Z,2.60
2022-08-01T23:58:56.830Z,2.60
